sensor_id;sensor_type;location;lat;lon;timestamp;temperature;humidity
67603;DHT22;54417;47.454;18.918;2022-12-07T00:05:12;-0.93;94.31
67603;DHT22;54417;47.454;18.918;2022-12-07T00:10:37;-0.93;94.42
67603;DHT22;54417;47.454;18.918;2022-12-07T00:16:02;-0.99;94.23
67603;DHT22;54417;47.454;18.918;2022-12-07T00:21:28;-1.13;93.89
67603;DHT22;54417;47.454;18.918;2022-12-07T00:26:53;-1.23;93.75
67603;DHT22;54417;47.454;18.918;2022-12-07T00:32:17;-1.38;93.67
67603;DHT22;54417;47.454;18.918;2022-12-07T00:37:41;-1.31;93.97
67603;DHT22;54417;47.454;18.918;2022-12-07T00:43:06;-1.27;94.31
67603;DHT22;54417;47.454;18.918;2022-12-07T00:48:30;-1.33;94.08
67603;DHT22;54417;47.454;18.918;2022-12-07T00:53:54;-1.37;93.94
67603;DHT22;54417;47.454;18.918;2022-12-07T00:59:19;-1.37;93.78
67603;DHT22;54417;47.454;18.918;2022-12-07T01:04:42;-1.45;93.94
67603;DHT22;54417;47.454;18.918;2022-12-07T01:10:07;-1.52;93.84
67603;DHT22;54417;47.454;18.918;2022-12-07T01:15:32;-1.55;94.14
67603;DHT22;54417;47.454;18.918;2022-12-07T01:21:00;-1.59;94.61
67603;DHT22;54417;47.454;18.918;2022-12-07T01:26:25;-1.58;94.76
67603;DHT22;54417;47.454;18.918;2022-12-07T01:31:50;-1.52;94.74
67603;DHT22;54417;47.454;18.918;2022-12-07T01:37:14;-1.43;94.75
67603;DHT22;54417;47.454;18.918;2022-12-07T01:42:37;-1.20;95.06
67603;DHT22;54417;47.454;18.918;2022-12-07T01:48:04;-0.93;95.23
67603;DHT22;54417;47.454;18.918;2022-12-07T01:53:29;-0.70;95.08
67603;DHT22;54417;47.454;18.918;2022-12-07T01:58:54;-0.54;94.91
67603;DHT22;54417;47.454;18.918;2022-12-07T02:04:21;-0.41;94.93
67603;DHT22;54417;47.454;18.918;2022-12-07T02:09:44;-0.24;94.95
67603;DHT22;54417;47.454;18.918;2022-12-07T02:15:08;-0.06;94.87
67603;DHT22;54417;47.454;18.918;2022-12-07T02:20:38;0.01;94.69
67603;DHT22;54417;47.454;18.918;2022-12-07T02:26:21;0.14;94.64
67603;DHT22;54417;47.454;18.918;2022-12-07T02:31:56;0.21;94.43
67603;DHT22;54417;47.454;18.918;2022-12-07T02:37:30;0.22;94.40
67603;DHT22;54417;47.454;18.918;2022-12-07T02:43:01;0.28;94.36
67603;DHT22;54417;47.454;18.918;2022-12-07T02:48:27;0.37;94.33
67603;DHT22;54417;47.454;18.918;2022-12-07T02:53:51;0.47;94.37
67603;DHT22;54417;47.454;18.918;2022-12-07T02:59:24;0.59;94.44
67603;DHT22;54417;47.454;18.918;2022-12-07T03:05:03;0.66;94.04
67603;DHT22;54417;47.454;18.918;2022-12-07T03:10:36;0.68;93.88
67603;DHT22;54417;47.454;18.918;2022-12-07T03:16:08;0.79;93.84
67603;DHT22;54417;47.454;18.918;2022-12-07T03:21:39;0.82;93.82
67603;DHT22;54417;47.454;18.918;2022-12-07T03:27:06;1.04;93.81
67603;DHT22;54417;47.454;18.918;2022-12-07T03:32:35;1.07;93.68
67603;DHT22;54417;47.454;18.918;2022-12-07T03:38:06;0.93;93.60
67603;DHT22;54417;47.454;18.918;2022-12-07T03:43:32;0.89;93.72
67603;DHT22;54417;47.454;18.918;2022-12-07T03:49:00;0.92;93.60
67603;DHT22;54417;47.454;18.918;2022-12-07T03:54:32;0.97;93.70
67603;DHT22;54417;47.454;18.918;2022-12-07T03:59:57;1.00;93.45
67603;DHT22;54417;47.454;18.918;2022-12-07T04:05:33;1.07;93.39
67603;DHT22;54417;47.454;18.918;2022-12-07T04:10:58;1.16;93.66
67603;DHT22;54417;47.454;18.918;2022-12-07T04:16:22;1.27;93.74
67603;DHT22;54417;47.454;18.918;2022-12-07T04:21:46;1.41;93.92
67603;DHT22;54417;47.454;18.918;2022-12-07T04:27:12;1.74;94.39
67603;DHT22;54417;47.454;18.918;2022-12-07T04:32:35;1.95;94.13
67603;DHT22;54417;47.454;18.918;2022-12-07T04:37:59;2.06;93.94
67603;DHT22;54417;47.454;18.918;2022-12-07T04:43:24;2.16;93.64
67603;DHT22;54417;47.454;18.918;2022-12-07T04:48:48;2.16;93.29
67603;DHT22;54417;47.454;18.918;2022-12-07T04:54:13;2.17;93.47
67603;DHT22;54417;47.454;18.918;2022-12-07T04:59:38;2.30;93.39
67603;DHT22;54417;47.454;18.918;2022-12-07T05:05:07;2.41;93.25
67603;DHT22;54417;47.454;18.918;2022-12-07T05:10:31;2.50;93.23
67603;DHT22;54417;47.454;18.918;2022-12-07T05:15:56;2.51;93.13
67603;DHT22;54417;47.454;18.918;2022-12-07T05:21:20;2.47;93.16
67603;DHT22;54417;47.454;18.918;2022-12-07T05:26:44;2.54;93.16
67603;DHT22;54417;47.454;18.918;2022-12-07T05:32:09;2.54;93.06
67603;DHT22;54417;47.454;18.918;2022-12-07T05:37:33;2.51;93.10
67603;DHT22;54417;47.454;18.918;2022-12-07T05:42:57;2.44;93.20
67603;DHT22;54417;47.454;18.918;2022-12-07T05:48:27;2.47;93.12
67603;DHT22;54417;47.454;18.918;2022-12-07T05:53:51;2.33;93.30
67603;DHT22;54417;47.454;18.918;2022-12-07T05:59:15;2.40;93.25
67603;DHT22;54417;47.454;18.918;2022-12-07T06:04:51;2.33;93.26
67603;DHT22;54417;47.454;18.918;2022-12-07T06:10:15;2.29;93.30
67603;DHT22;54417;47.454;18.918;2022-12-07T06:15:39;2.16;93.67
67603;DHT22;54417;47.454;18.918;2022-12-07T06:21:04;2.13;93.73
67603;DHT22;54417;47.454;18.918;2022-12-07T06:26:28;2.25;93.63
67603;DHT22;54417;47.454;18.918;2022-12-07T06:31:51;2.19;93.71
67603;DHT22;54417;47.454;18.918;2022-12-07T06:37:17;2.23;93.73
67603;DHT22;54417;47.454;18.918;2022-12-07T06:42:40;2.27;93.62
67603;DHT22;54417;47.454;18.918;2022-12-07T06:48:04;2.23;93.62
67603;DHT22;54417;47.454;18.918;2022-12-07T06:53:29;2.20;93.73
67603;DHT22;54417;47.454;18.918;2022-12-07T06:58:53;2.22;93.73
67603;DHT22;54417;47.454;18.918;2022-12-07T07:04:17;2.26;93.67
67603;DHT22;54417;47.454;18.918;2022-12-07T07:09:42;2.25;93.72
67603;DHT22;54417;47.454;18.918;2022-12-07T07:15:06;2.37;93.59
67603;DHT22;54417;47.454;18.918;2022-12-07T07:20:30;2.32;93.52
67603;DHT22;54417;47.454;18.918;2022-12-07T07:25:55;2.38;93.55
67603;DHT22;54417;47.454;18.918;2022-12-07T07:31:19;2.44;93.47
67603;DHT22;54417;47.454;18.918;2022-12-07T07:36:43;2.55;93.48
67603;DHT22;54417;47.454;18.918;2022-12-07T07:42:08;2.74;93.27
67603;DHT22;54417;47.454;18.918;2022-12-07T07:47:33;2.94;93.19
67603;DHT22;54417;47.454;18.918;2022-12-07T07:52:57;3.12;93.02
67603;DHT22;54417;47.454;18.918;2022-12-07T07:58:22;3.27;92.88
67603;DHT22;54417;47.454;18.918;2022-12-07T08:03:46;3.40;92.89
67603;DHT22;54417;47.454;18.918;2022-12-07T08:09:10;3.40;92.72
67603;DHT22;54417;47.454;18.918;2022-12-07T08:14:35;3.33;93.03
67603;DHT22;54417;47.454;18.918;2022-12-07T08:19:59;3.43;93.05
67603;DHT22;54417;47.454;18.918;2022-12-07T08:25:23;3.56;92.91
67603;DHT22;54417;47.454;18.918;2022-12-07T08:30:48;3.67;92.87
67603;DHT22;54417;47.454;18.918;2022-12-07T08:36:12;3.73;92.75
67603;DHT22;54417;47.454;18.918;2022-12-07T08:41:36;3.85;92.76
67603;DHT22;54417;47.454;18.918;2022-12-07T08:47:04;4.02;92.32
67603;DHT22;54417;47.454;18.918;2022-12-07T08:52:29;4.16;92.24
67603;DHT22;54417;47.454;18.918;2022-12-07T08:57:53;4.42;91.92
67603;DHT22;54417;47.454;18.918;2022-12-07T09:03:18;4.63;90.86
67603;DHT22;54417;47.454;18.918;2022-12-07T09:08:46;4.71;90.58
67603;DHT22;54417;47.454;18.918;2022-12-07T09:14:10;4.79;90.33
67603;DHT22;54417;47.454;18.918;2022-12-07T09:19:36;4.71;90.05
67603;DHT22;54417;47.454;18.918;2022-12-07T09:25:01;4.74;90.41
67603;DHT22;54417;47.454;18.918;2022-12-07T09:30:25;4.69;90.38
67603;DHT22;54417;47.454;18.918;2022-12-07T09:35:51;4.90;90.17
67603;DHT22;54417;47.454;18.918;2022-12-07T09:41:15;5.38;88.61
67603;DHT22;54417;47.454;18.918;2022-12-07T09:46:41;5.56;87.64
67603;DHT22;54417;47.454;18.918;2022-12-07T09:52:19;5.73;88.05
67603;DHT22;54417;47.454;18.918;2022-12-07T09:57:43;5.77;87.86
67603;DHT22;54417;47.454;18.918;2022-12-07T10:03:08;5.85;87.80
67603;DHT22;54417;47.454;18.918;2022-12-07T10:08:33;5.90;87.16
67603;DHT22;54417;47.454;18.918;2022-12-07T10:14:10;5.91;87.03
67603;DHT22;54417;47.454;18.918;2022-12-07T10:19:35;6.04;86.09
67603;DHT22;54417;47.454;18.918;2022-12-07T10:25:08;6.11;85.90
67603;DHT22;54417;47.454;18.918;2022-12-07T10:30:33;6.14;85.89
67603;DHT22;54417;47.454;18.918;2022-12-07T10:36:20;6.18;85.23
67603;DHT22;54417;47.454;18.918;2022-12-07T10:41:56;6.44;86.21
67603;DHT22;54417;47.454;18.918;2022-12-07T10:47:32;6.59;85.22
67603;DHT22;54417;47.454;18.918;2022-12-07T10:53:05;6.41;83.64
67603;DHT22;54417;47.454;18.918;2022-12-07T10:58:39;6.49;83.78
67603;DHT22;54417;47.454;18.918;2022-12-07T11:04:17;6.68;83.94
67603;DHT22;54417;47.454;18.918;2022-12-07T11:09:58;6.90;82.90
67603;DHT22;54417;47.454;18.918;2022-12-07T11:15:39;6.97;81.26
67603;DHT22;54417;47.454;18.918;2022-12-07T11:21:09;7.01;80.23
67603;DHT22;54417;47.454;18.918;2022-12-07T11:26:48;6.86;79.66
67603;DHT22;54417;47.454;18.918;2022-12-07T11:32:34;6.93;80.30
67603;DHT22;54417;47.454;18.918;2022-12-07T11:38:09;6.80;80.49
67603;DHT22;54417;47.454;18.918;2022-12-07T11:43:34;6.97;80.30
67603;DHT22;54417;47.454;18.918;2022-12-07T11:49:07;7.01;78.75
67603;DHT22;54417;47.454;18.918;2022-12-07T11:54:35;7.00;77.74
67603;DHT22;54417;47.454;18.918;2022-12-07T12:00:05;6.76;77.62
67603;DHT22;54417;47.454;18.918;2022-12-07T12:05:33;6.57;78.99
67603;DHT22;54417;47.454;18.918;2022-12-07T12:11:00;6.48;78.20
67603;DHT22;54417;47.454;18.918;2022-12-07T12:22:26;6.38;79.80
67603;DHT22;54417;47.454;18.918;2022-12-07T12:27:53;6.18;79.44
67603;DHT22;54417;47.454;18.918;2022-12-07T12:33:22;6.14;81.06
67603;DHT22;54417;47.454;18.918;2022-12-07T12:39:07;6.20;80.02
67603;DHT22;54417;47.454;18.918;2022-12-07T12:50:35;6.61;78.07
67603;DHT22;54417;47.454;18.918;2022-12-07T12:56:33;6.87;78.24
67603;DHT22;54417;47.454;18.918;2022-12-07T13:02:21;6.89;78.27
67603;DHT22;54417;47.454;18.918;2022-12-07T13:07:58;6.83;77.70
67603;DHT22;54417;47.454;18.918;2022-12-07T13:13:31;6.80;77.65
67603;DHT22;54417;47.454;18.918;2022-12-07T13:18:55;6.72;74.70
67603;DHT22;54417;47.454;18.918;2022-12-07T13:24:19;6.31;75.81
67603;DHT22;54417;47.454;18.918;2022-12-07T13:29:46;6.00;76.48
67603;DHT22;54417;47.454;18.918;2022-12-07T13:35:37;5.79;77.18
67603;DHT22;54417;47.454;18.918;2022-12-07T13:41:12;5.58;78.53
67603;DHT22;54417;47.454;18.918;2022-12-07T13:46:46;5.53;78.92
67603;DHT22;54417;47.454;18.918;2022-12-07T13:52:15;5.59;78.90
67603;DHT22;54417;47.454;18.918;2022-12-07T13:57:40;5.63;79.32
67603;DHT22;54417;47.454;18.918;2022-12-07T14:03:30;5.67;79.55
67603;DHT22;54417;47.454;18.918;2022-12-07T14:09:08;5.59;79.75
67603;DHT22;54417;47.454;18.918;2022-12-07T14:14:32;5.46;80.52
67603;DHT22;54417;47.454;18.918;2022-12-07T14:20:00;5.32;81.93
67603;DHT22;54417;47.454;18.918;2022-12-07T14:25:25;5.19;82.20
67603;DHT22;54417;47.454;18.918;2022-12-07T14:30:49;5.01;82.74
67603;DHT22;54417;47.454;18.918;2022-12-07T14:36:14;4.74;83.92
67603;DHT22;54417;47.454;18.918;2022-12-07T14:41:38;4.42;85.15
67603;DHT22;54417;47.454;18.918;2022-12-07T14:47:14;4.15;86.04
67603;DHT22;54417;47.454;18.918;2022-12-07T14:53:02;3.88;87.03
67603;DHT22;54417;47.454;18.918;2022-12-07T14:58:44;3.71;87.76
67603;DHT22;54417;47.454;18.918;2022-12-07T15:04:10;3.60;88.12
67603;DHT22;54417;47.454;18.918;2022-12-07T15:09:35;3.47;88.68
67603;DHT22;54417;47.454;18.918;2022-12-07T15:14:59;3.22;88.79
67603;DHT22;54417;47.454;18.918;2022-12-07T15:20:24;2.94;89.37
67603;DHT22;54417;47.454;18.918;2022-12-07T15:25:49;2.60;89.57
67603;DHT22;54417;47.454;18.918;2022-12-07T15:31:14;2.38;90.02
67603;DHT22;54417;47.454;18.918;2022-12-07T15:36:58;2.12;90.13
67603;DHT22;54417;47.454;18.918;2022-12-07T15:42:23;1.86;90.85
67603;DHT22;54417;47.454;18.918;2022-12-07T15:47:46;1.64;91.18
67603;DHT22;54417;47.454;18.918;2022-12-07T15:53:30;1.38;91.55
67603;DHT22;54417;47.454;18.918;2022-12-07T15:58:57;1.26;91.66
67603;DHT22;54417;47.454;18.918;2022-12-07T16:04:21;1.10;91.94
67603;DHT22;54417;47.454;18.918;2022-12-07T16:09:45;0.92;91.85
67603;DHT22;54417;47.454;18.918;2022-12-07T16:15:11;0.78;92.10
67603;DHT22;54417;47.454;18.918;2022-12-07T16:20:35;0.66;92.40
67603;DHT22;54417;47.454;18.918;2022-12-07T16:26:04;0.48;92.56
67603;DHT22;54417;47.454;18.918;2022-12-07T16:31:29;0.40;92.67
67603;DHT22;54417;47.454;18.918;2022-12-07T16:36:53;0.25;92.80
67603;DHT22;54417;47.454;18.918;2022-12-07T16:42:25;0.17;92.51
67603;DHT22;54417;47.454;18.918;2022-12-07T16:47:51;0.01;92.57
67603;DHT22;54417;47.454;18.918;2022-12-07T16:53:15;-0.06;92.80
67603;DHT22;54417;47.454;18.918;2022-12-07T16:58:39;-0.21;92.73
67603;DHT22;54417;47.454;18.918;2022-12-07T17:04:04;-0.28;93.03
67603;DHT22;54417;47.454;18.918;2022-12-07T17:09:28;-0.35;93.08
67603;DHT22;54417;47.454;18.918;2022-12-07T17:14:52;-0.48;93.14
67603;DHT22;54417;47.454;18.918;2022-12-07T17:20:43;-0.64;93.19
67603;DHT22;54417;47.454;18.918;2022-12-07T17:26:08;-0.69;93.32
67603;DHT22;54417;47.454;18.918;2022-12-07T17:31:32;-0.68;93.45
67603;DHT22;54417;47.454;18.918;2022-12-07T17:36:58;-0.66;93.31
67603;DHT22;54417;47.454;18.918;2022-12-07T17:42:25;-0.68;93.17
67603;DHT22;54417;47.454;18.918;2022-12-07T17:48:03;-0.85;93.37
67603;DHT22;54417;47.454;18.918;2022-12-07T17:53:29;-0.95;93.54
67603;DHT22;54417;47.454;18.918;2022-12-07T17:58:56;-1.04;93.45
67603;DHT22;54417;47.454;18.918;2022-12-07T18:04:19;-1.01;94.28
67603;DHT22;54417;47.454;18.918;2022-12-07T18:09:44;-0.87;94.61
67603;DHT22;54417;47.454;18.918;2022-12-07T18:15:11;-0.85;94.38
67603;DHT22;54417;47.454;18.918;2022-12-07T18:20:34;-0.79;94.44
67603;DHT22;54417;47.454;18.918;2022-12-07T18:25:59;-0.75;94.49
67603;DHT22;54417;47.454;18.918;2022-12-07T18:31:23;-0.86;94.05
67603;DHT22;54417;47.454;18.918;2022-12-07T18:36:49;-1.14;93.55
67603;DHT22;54417;47.454;18.918;2022-12-07T18:42:14;-1.21;93.74
67603;DHT22;54417;47.454;18.918;2022-12-07T18:47:40;-1.43;93.37
67603;DHT22;54417;47.454;18.918;2022-12-07T18:53:04;-1.52;93.48
67603;DHT22;54417;47.454;18.918;2022-12-07T18:58:32;-1.64;93.94
67603;DHT22;54417;47.454;18.918;2022-12-07T19:03:56;-1.52;94.48
67603;DHT22;54417;47.454;18.918;2022-12-07T19:09:23;-1.52;94.23
67603;DHT22;54417;47.454;18.918;2022-12-07T19:14:48;-1.66;94.03
67603;DHT22;54417;47.454;18.918;2022-12-07T19:20:15;-1.83;93.86
67603;DHT22;54417;47.454;18.918;2022-12-07T19:25:39;-1.90;93.91
67603;DHT22;54417;47.454;18.918;2022-12-07T19:31:06;-1.99;93.83
67603;DHT22;54417;47.454;18.918;2022-12-07T19:36:30;-2.03;93.63
67603;DHT22;54417;47.454;18.918;2022-12-07T19:41:54;-2.05;93.73
67603;DHT22;54417;47.454;18.918;2022-12-07T19:47:20;-2.16;93.39
67603;DHT22;54417;47.454;18.918;2022-12-07T19:52:44;-2.23;93.61
67603;DHT22;54417;47.454;18.918;2022-12-07T19:58:08;-2.32;93.13
67603;DHT22;54417;47.454;18.918;2022-12-07T20:03:33;-2.30;93.49
67603;DHT22;54417;47.454;18.918;2022-12-07T20:08:57;-2.33;93.34
67603;DHT22;54417;47.454;18.918;2022-12-07T20:14:20;-2.34;93.96
67603;DHT22;54417;47.454;18.918;2022-12-07T20:19:45;-2.32;94.15
67603;DHT22;54417;47.454;18.918;2022-12-07T20:25:09;-2.36;93.93
67603;DHT22;54417;47.454;18.918;2022-12-07T20:30:33;-2.24;94.02
67603;DHT22;54417;47.454;18.918;2022-12-07T20:36:03;-2.24;93.82
67603;DHT22;54417;47.454;18.918;2022-12-07T20:41:27;-2.38;93.28
67603;DHT22;54417;47.454;18.918;2022-12-07T20:47:08;-2.47;93.38
67603;DHT22;54417;47.454;18.918;2022-12-07T20:52:35;-2.61;93.17
67603;DHT22;54417;47.454;18.918;2022-12-07T20:57:59;-2.65;93.40
67603;DHT22;54417;47.454;18.918;2022-12-07T21:03:23;-2.65;93.87
67603;DHT22;54417;47.454;18.918;2022-12-07T21:08:50;-2.64;93.78
67603;DHT22;54417;47.454;18.918;2022-12-07T21:14:14;-2.48;94.49
67603;DHT22;54417;47.454;18.918;2022-12-07T21:19:39;-2.41;94.06
67603;DHT22;54417;47.454;18.918;2022-12-07T21:25:04;-2.48;93.78
67603;DHT22;54417;47.454;18.918;2022-12-07T21:30:28;-2.57;93.94
67603;DHT22;54417;47.454;18.918;2022-12-07T21:36:18;-2.54;93.57
67603;DHT22;54417;47.454;18.918;2022-12-07T21:41:43;-2.54;93.83
67603;DHT22;54417;47.454;18.918;2022-12-07T21:47:07;-2.54;93.89
67603;DHT22;54417;47.454;18.918;2022-12-07T21:52:30;-2.55;93.75
67603;DHT22;54417;47.454;18.918;2022-12-07T21:57:56;-2.62;93.56
67603;DHT22;54417;47.454;18.918;2022-12-07T22:03:19;-2.65;93.58
67603;DHT22;54417;47.454;18.918;2022-12-07T22:08:43;-2.66;93.69
67603;DHT22;54417;47.454;18.918;2022-12-07T22:14:09;-2.78;93.70
67603;DHT22;54417;47.454;18.918;2022-12-07T22:19:50;-2.82;93.37
67603;DHT22;54417;47.454;18.918;2022-12-07T22:25:17;-2.78;93.64
67603;DHT22;54417;47.454;18.918;2022-12-07T22:30:42;-2.81;93.89
67603;DHT22;54417;47.454;18.918;2022-12-07T22:36:08;-2.78;94.04
67603;DHT22;54417;47.454;18.918;2022-12-07T22:41:32;-2.71;94.38
67603;DHT22;54417;47.454;18.918;2022-12-07T22:46:57;-2.78;94.21
67603;DHT22;54417;47.454;18.918;2022-12-07T22:52:21;-2.82;94.03
67603;DHT22;54417;47.454;18.918;2022-12-07T22:57:45;-2.89;93.97
67603;DHT22;54417;47.454;18.918;2022-12-07T23:03:10;-2.88;93.89
67603;DHT22;54417;47.454;18.918;2022-12-07T23:08:34;-2.91;93.88
67603;DHT22;54417;47.454;18.918;2022-12-07T23:13:58;-2.79;94.11
67603;DHT22;54417;47.454;18.918;2022-12-07T23:19:23;-2.69;94.17
67603;DHT22;54417;47.454;18.918;2022-12-07T23:24:47;-2.64;94.08
67603;DHT22;54417;47.454;18.918;2022-12-07T23:30:11;-2.55;94.09
67603;DHT22;54417;47.454;18.918;2022-12-07T23:35:36;-2.54;94.04
67603;DHT22;54417;47.454;18.918;2022-12-07T23:41:03;-2.57;93.94
67603;DHT22;54417;47.454;18.918;2022-12-07T23:46:28;-2.55;93.76
67603;DHT22;54417;47.454;18.918;2022-12-07T23:51:54;-2.47;93.74
67603;DHT22;54417;47.454;18.918;2022-12-07T23:57:17;-2.47;93.62
